Cedar Brook, New Jersey
Current Conditions -  °F | °C
As of 9:31 AM on Thursday 27 Nov 2014 (Local Time) from KVAY Reporting Station
Overcast Overcast  
Wind Chill: 32°   Ceiling: 1600
Heat Index: 36°   Visibility: 10mi
Dew Point: 30°   Wind: 5mph
Humidity: 79%   Direction: 300°WNW
Pressure: 30.03"   Gusts: NA
Location:  39.72°N, 74.9°W
Report Text: KVAY 271431Z AUTO 30004KT 10SM OVC016 02/M01 A3003 RMK AO2 T00221011
Loading
Personal Weather Stations






























Interactive Weather Map New forecast layout! Learn more

10-Day Weather Forecast

Advertisements
Track Severe Weather on mobile